Latest Weather Observations for Cabramurra

IDN60901

Issued at 11:11 pm EDT Sunday 4 December 2016 (issued every 10 minutes, with the page automatically refreshed every 10 minutes)

About weather observations | Map of Canberra area stations | Latest observations for Canberra area | Other Formats
Station Details ID: 072161 Name: CABRAMURRA SMHEA AWS Lat: -35.94 Lon: 148.38 Height: 1482.4 m
Data from the previous 72 hours. | See also: Recent months at Cabramurra
Date/Time
EDT
Temp
°C
App
Temp
°C
Dew
Point
°C
Rel
Hum
%
Delta-T
°C
Wind Press
QNH
hPa
Press
MSL
hPa
Rain since
9am
mm
Dir  Spd
km/h
Gust
km/h
Spd
kts
Gust
kts
04/11:00pm 16.1 14.3 9.3 64 3.8 NE 9 13 5 7 - - 0.4
04/10:30pm 15.8 13.2 9.5 66 3.5 ENE 13 19 7 10 - - 0.4
04/10:00pm 16.0 13.5 9.7 66 3.5 NE 13 20 7 11 - - 0.4
04/09:30pm 15.5 12.0 10.3 71 3.0 NE 19 24 10 13 - - 0.4
04/09:00pm 15.1 14.1 11.1 77 2.3 NE 7 9 4 5 - - 0.4
04/08:30pm 14.9 13.0 10.5 75 2.5 WNW 11 22 6 12 - - 0.4
04/08:00pm 16.2 11.6 9.8 66 3.6 NW 24 37 13 20 - - 0.0
04/07:30pm 18.6 14.3 7.7 49 6.0 NW 20 30 11 16 - - 0.0
04/07:00pm 18.8 14.6 7.6 48 6.2 N 19 26 10 14 - - 0.0
04/06:30pm 19.0 14.1 7.1 46 6.5 N 22 32 12 17 - - 0.0
04/06:00pm 19.3 14.2 7.7 47 6.4 N 24 32 13 17 - - 0.0
04/05:30pm 19.8 15.7 8.5 48 6.3 N 20 28 11 15 - - 0.0
04/05:00pm 20.2 15.6 8.2 46 6.7 N 22 32 12 17 - - 0.0
04/04:30pm 21.1 17.8 9.7 48 6.6 N 17 28 9 15 - - 0.0
04/04:00pm 20.7 17.5 8.4 45 6.9 NW 15 26 8 14 - - 0.0
04/03:30pm 20.0 16.0 8.4 47 6.5 NNW 19 26 10 14 - - 0.0
04/03:00pm 20.4 17.5 8.1 45 6.9 N 13 19 7 10 - - 0.0
04/02:30pm 20.7 17.1 8.4 45 6.9 N 17 24 9 13 - - 0.0
04/02:00pm 21.2 17.8 7.8 42 7.5 NNW 15 24 8 13 - - 0.0
04/01:30pm 21.5 18.3 7.0 39 8.0 N 13 20 7 11 - - 0.0
04/01:00pm 21.2 18.9 7.4 41 7.6 N 9 17 5 9 - - 0.0
04/12:30pm 20.6 17.6 7.9 44 7.1 NNW 13 19 7 10 - - 0.0
04/12:00pm 20.6 17.4 6.9 41 7.5 NW 13 20 7 11 - - 0.0
04/11:30am 20.5 17.2 6.5 40 7.6 N 13 19 7 10 - - 0.0
04/11:00am 19.9 16.6 6.6 42 7.2 NNW 13 19 7 10 - - 0.0
04/10:30am 19.2 14.7 4.2 37 7.7 N 17 20 9 11 - - 0.0
04/10:00am 19.0 14.5 4.0 37 7.7 N 17 20 9 11 - - 0.0
04/09:30am 18.4 14.8 4.9 41 7.0 N 13 17 7 9 - - 0.0
04/09:00am 18.0 14.5 3.5 38 7.3 NNW 11 17 6 9 - - 0.0
04/08:30am 17.3 13.9 3.9 41 6.8 NW 11 17 6 9 - - 0.0
04/08:00am 17.0 13.4 3.0 39 7.0 NW 11 17 6 9 - - 0.0
04/07:30am 16.2 12.6 2.9 41 6.6 WNW 11 13 6 7 - - 0.0
04/07:00am 15.0 11.1 3.2 45 5.8 W 13 17 7 9 - - 0.0
04/06:30am 15.4 11.5 3.2 44 6.0 W 13 20 7 11 - - 0.0
04/06:00am 14.7 11.1 2.9 45 5.8 WSW 11 15 6 8 - - 0.0
04/05:30am 14.6 10.1 2.2 43 6.0 WSW 15 19 8 10 - - 0.0
04/05:00am 14.1 9.5 -1.1 35 6.8 SW 13 15 7 8 - - 0.0
04/04:30am 13.8 9.9 -1.8 34 6.8 WSW 9 15 5 8 - - 0.0
04/04:00am 14.4 10.0 -2.1 32 7.2 W 11 15 6 8 - - 0.0
04/03:30am 14.3 9.6 -2.1 32 7.2 WSW 13 15 7 8 - - 0.0
04/03:00am 14.2 9.6 -1.4 34 6.9 SW 13 15 7 8 - - 0.0
04/02:30am 13.8 9.5 -1.8 34 6.8 SSW 11 15 6 8 - - 0.0
04/02:00am 13.9 9.5 -2.5 32 7.1 SW 11 15 6 8 - - 0.0
04/01:30am 14.6 9.4 -2.8 30 7.5 SW 15 17 8 9 - - 0.0
04/01:00am 14.4 9.2 -2.5 31 7.3 WSW 15 20 8 11 - - 0.0
04/12:30am 14.9 10.0 -3.0 29 7.7 WSW 13 17 7 9 - - 0.0
04/12:00am 14.3 9.9 -2.1 32 7.2 W 11 19 6 10 - - 0.0
 
Date/Time
EDT
Temp
°C
App
Temp
°C
Dew
Point
°C
Rel
Hum
%
Delta-T
°C
Wind Press
QNH
hPa
Press
MSL
hPa
Rain since
9am
mm
Dir  Spd
km/h
Gust
km/h
Spd
kts
Gust
kts
03/11:30pm 13.5 9.6 -1.6 35 6.6 WNW 9 11 5 6 - - 0.0
03/11:00pm 13.3 9.4 -1.8 35 6.6 WNW 9 11 5 6 - - 0.0
03/10:30pm 13.8 9.5 -1.8 34 6.8 WNW 11 13 6 7 - - 0.0
03/10:00pm 13.8 10.2 -1.8 34 6.8 WNW 7 9 4 5 - - 0.0
03/09:30pm 14.3 10.4 -1.3 34 7.0 W 9 13 5 7 - - 0.0
03/09:00pm 14.6 10.4 -1.1 34 7.0 W 11 17 6 9 - - 0.0
03/08:30pm 15.6 10.6 -1.4 31 7.6 WNW 15 20 8 11 - - 0.0
03/08:00pm 16.4 11.1 -0.8 31 7.9 W 17 26 9 14 - - 0.0
03/07:30pm 17.7 12.5 -0.1 30 8.4 W 17 28 9 15 - - 0.0
03/07:00pm 18.8 13.4 1.3 31 8.5 W 19 28 10 15 - - 0.0
03/06:30pm 19.0 12.5 0.6 29 8.9 W 24 39 13 21 - - 0.0
03/06:00pm 19.1 12.4 -0.8 26 9.3 WNW 24 35 13 19 - - 0.0
03/05:30pm 19.7 12.4 0.2 27 9.4 W 28 39 15 21 - - 0.0
03/05:00pm 19.8 13.1 1.3 29 9.1 W 26 37 14 20 - - 0.0
03/04:30pm 19.6 13.7 1.6 30 8.9 WNW 22 35 12 19 - - 0.0
03/04:00pm 19.7 12.7 1.7 30 8.9 WNW 28 43 15 23 - - 0.0
03/03:30pm 19.4 11.2 2.7 33 8.4 WNW 35 54 19 29 - - 0.0
03/03:19pm 20.0 13.4 4.1 35 8.2 W 28 46 15 25 - - 0.0
03/03:00pm 19.3 12.6 3.9 36 7.9 WNW 28 44 15 24 - - 0.0
03/02:32pm 18.7 11.9 3.3 36 7.8 WNW 28 50 15 27 - - 0.0
03/02:30pm 19.3 13.1 4.3 37 7.8 WNW 26 43 14 23 - - 0.0
03/02:00pm 17.7 11.3 5.0 43 6.6 WNW 28 43 15 23 - - 0.0
03/01:30pm 18.6 11.8 5.1 41 7.1 WNW 30 44 16 24 - - 0.0
03/01:00pm 18.7 12.5 6.2 44 6.7 WNW 28 46 15 25 - - 0.0
03/12:30pm 17.7 10.7 5.9 46 6.2 WNW 32 50 17 27 - - 0.0
03/12:26pm 17.6 10.4 5.2 44 6.5 WNW 32 50 17 27 - - 0.0
03/12:00pm 17.2 11.4 6.4 49 5.7 WNW 26 39 14 21 - - 0.0
03/11:30am 16.7 11.7 6.5 51 5.4 WNW 22 33 12 18 - - 0.0
03/11:00am 16.1 11.0 6.0 51 5.3 WNW 22 33 12 18 - - 0.0
03/10:30am 15.6 10.7 4.9 49 5.5 WNW 20 30 11 16 - - 0.0
03/10:00am 15.4 9.8 5.6 52 5.1 WNW 24 33 13 18 - - 0.0
03/09:30am 14.8 9.8 4.5 50 5.2 W 20 30 11 16 - - 0.0
03/09:00am 14.3 9.2 4.0 50 5.1 WNW 20 28 11 15 - - 0.0
03/08:30am 14.1 9.5 3.6 49 5.2 WNW 17 22 9 12 - - 0.0
03/08:00am 13.7 9.1 3.8 51 4.9 NW 17 20 9 11 - - 0.0
03/07:30am 13.0 7.9 2.8 50 4.9 NW 19 26 10 14 - - 0.0
03/07:00am 12.8 8.4 2.9 51 4.8 NW 15 19 8 10 - - 0.0
03/06:30am 11.7 7.7 2.7 54 4.3 NW 13 17 7 9 - - 0.0
03/06:00am 11.9 7.9 2.6 53 4.4 NW 13 17 7 9 - - 0.0
03/05:30am 12.5 8.5 2.7 51 4.7 WNW 13 15 7 8 - - 0.0
03/05:00am 12.6 8.5 2.5 50 4.8 WNW 13 17 7 9 - - 0.0
03/04:30am 12.4 8.4 2.6 51 4.7 WNW 13 17 7 9 - - 0.0
03/04:00am 12.7 8.7 2.6 50 4.8 WNW 13 17 7 9 - - 0.0
03/03:30am 12.4 8.4 2.6 51 4.7 WNW 13 15 7 8 - - 0.0
03/03:00am 12.5 8.5 2.7 51 4.7 NW 13 17 7 9 - - 0.0
03/02:30am 12.5 8.4 2.4 50 4.8 NW 13 15 7 8 - - 0.0
03/02:00am 12.9 8.9 2.7 50 4.9 WNW 13 17 7 9 - - 0.0
03/01:30am 13.2 8.8 2.7 49 5.0 WNW 15 20 8 11 - - 0.0
03/01:00am 13.6 8.8 2.5 47 5.3 NW 17 20 9 11 - - 0.0
03/12:30am 13.3 8.9 2.8 49 5.1 NW 15 20 8 11 - - 0.0
03/12:00am 13.7 9.0 2.9 48 5.2 NW 17 22 9 12 - - 0.0
 
Date/Time
EDT
Temp
°C
App
Temp
°C
Dew
Point
°C
Rel
Hum
%
Delta-T
°C
Wind Press
QNH
hPa
Press
MSL
hPa
Rain since
9am
mm
Dir  Spd
km/h
Gust
km/h
Spd
kts
Gust
kts
02/11:30pm 13.4 9.4 2.9 49 5.1 NW 13 19 7 10 - - 0.0
02/11:00pm 14.0 9.7 3.2 48 5.3 WNW 15 20 8 11 - - 0.0
02/10:30pm 14.1 10.2 3.3 48 5.3 WNW 13 24 7 13 - - 0.0
02/10:00pm 14.4 9.8 3.5 48 5.4 NW 17 22 9 12 - - 0.0
02/09:30pm 14.9 9.3 3.4 46 5.7 WNW 22 28 12 15 - - 0.0
02/09:00pm 15.1 10.0 3.9 47 5.6 WNW 20 30 11 16 - - 0.0
02/08:30pm 15.4 10.2 3.5 45 5.9 W 20 28 11 15 - - 0.0
02/08:00pm 15.9 10.3 3.7 44 6.1 W 22 33 12 18 - - 0.0
02/07:30pm 16.7 10.1 4.1 43 6.4 WNW 28 41 15 22 - - 0.0
02/07:00pm 17.5 12.7 4.5 42 6.7 W 19 33 10 18 - - 0.0
02/06:30pm 17.4 10.7 3.7 40 6.9 W 28 41 15 22 - - 0.0
02/06:18pm 18.5 12.1 5.0 41 7.0 W 28 46 15 25 - - 0.0
02/06:00pm 18.3 11.8 4.5 40 7.1 WNW 28 43 15 23 - - 0.0
02/05:30pm 18.9 11.9 4.3 38 7.5 W 30 43 16 23 - - 0.0
02/05:00pm 17.4 10.6 3.0 38 7.2 W 28 43 15 23 - - 0.0
02/04:30pm 19.1 11.6 3.7 36 7.9 W 32 56 17 30 - - 0.0
02/04:01pm 18.1 11.2 2.8 36 7.6 W 28 48 15 26 - - 0.0
02/04:00pm 18.3 11.9 3.4 37 7.5 W 26 48 14 26 - - 0.0
02/03:30pm 17.7 9.5 2.8 37 7.4 WNW 35 54 19 29 - - 0.0
02/03:04pm 19.0 11.9 3.6 36 7.9 WNW 30 59 16 32 - - 0.0
02/03:02pm 18.9 12.2 3.9 37 7.7 WNW 28 59 15 32 - - 0.0
02/03:00pm 19.0 12.6 3.2 35 8.0 W 26 59 14 32 - - 0.0
02/02:30pm 18.6 11.1 3.6 37 7.6 NW 32 54 17 29 - - 0.0
02/02:00pm 18.6 11.7 4.8 40 7.2 WNW 30 48 16 26 - - 0.0
02/01:56pm 18.1 11.1 3.9 39 7.2 WNW 30 48 16 26 - - 0.0
02/01:30pm 17.8 11.9 4.0 40 7.0 W 24 41 13 22 - - 0.0
02/01:00pm 17.7 11.3 5.3 44 6.5 W 28 43 15 23 - - 0.0
02/12:43pm 17.1 10.4 3.8 41 6.7 W 28 48 15 26 - - 0.0
02/12:30pm 17.3 11.5 4.3 42 6.6 W 24 37 13 20 - - 0.0
02/12:00pm 16.8 11.0 4.2 43 6.4 W 24 46 13 25 - - 0.0
02/11:53am 16.4 9.5 2.8 40 6.7 W 28 46 15 25 - - 0.0
02/11:30am 16.2 9.4 3.3 42 6.4 W 28 43 15 23 - - 0.0
02/11:00am 16.0 9.2 3.1 42 6.4 WNW 28 43 15 23 - - 0.0
02/10:32am 15.3 8.4 2.5 42 6.2 W 28 54 15 29 - - 0.0
02/10:30am 15.4 8.9 2.6 42 6.2 W 26 39 14 21 - - 0.0
02/10:12am 14.7 7.8 2.3 43 6.0 WNW 28 46 15 25 - - 0.0
02/10:00am 15.1 9.3 4.5 49 5.4 WNW 24 39 13 21 - - 0.0
02/09:30am 14.5 9.4 4.2 50 5.2 WNW 20 30 11 16 - - 0.0
02/09:00am 13.9 9.0 3.9 51 5.0 WNW 19 26 10 14 - - 0.0
02/08:30am 13.3 8.3 3.4 51 4.8 WNW 19 26 10 14 - - 0.0
02/08:00am 13.1 7.7 2.4 48 5.1 WNW 20 28 11 15 - - 0.0
02/07:30am 12.3 7.1 2.2 50 4.8 WNW 19 24 10 13 - - 0.0
02/07:00am 12.3 7.4 1.9 49 4.9 WNW 17 22 9 12 - - 0.0
02/06:30am 12.3 7.8 2.2 50 4.8 NW 15 20 8 11 - - 0.0
02/06:00am 12.0 7.8 1.9 50 4.7 NW 13 19 7 10 - - 0.0
02/05:30am 11.8 7.6 1.4 49 4.8 NW 13 17 7 9 - - 0.0
02/05:00am 11.9 7.7 1.5 49 4.8 NW 13 15 7 8 - - 0.0
02/04:30am 12.3 7.7 1.3 47 5.1 NW 15 17 8 9 - - 0.0
02/04:00am 12.4 7.7 0.8 45 5.3 NW 15 20 8 11 - - 0.0
02/03:30am 12.8 7.7 0.9 44 5.5 WNW 17 24 9 13 - - 0.0
02/03:00am 12.7 8.0 0.8 44 5.5 NW 15 19 8 10 - - 0.0
02/02:30am 12.7 7.6 0.8 44 5.5 WNW 17 22 9 12 - - 0.0
02/02:00am 13.0 7.5 0.7 43 5.7 WNW 19 24 10 13 - - 0.0
02/01:30am 13.4 8.2 0.4 41 6.0 WNW 17 24 9 13 - - 0.0
02/01:00am 13.5 7.8 0.5 41 6.0 WNW 20 28 11 15 - - 0.0
02/12:30am 13.7 8.0 0.4 40 6.1 WNW 20 26 11 14 - - 0.0
02/12:00am 13.6 7.6 1.3 43 5.8 WNW 22 28 12 15 - - 0.0
 
Date/Time
EDT
Temp
°C
App
Temp
°C
Dew
Point
°C
Rel
Hum
%
Delta-T
°C
Wind Press
QNH
hPa
Press
MSL
hPa
Rain since
9am
mm
Dir  Spd
km/h
Gust
km/h
Spd
kts
Gust
kts
01/11:30pm 14.0 7.7 1.6 43 5.9 WNW 24 30 13 16 - - 0.0

Latest Capital City Observations: Canberra | Sydney | Melbourne | Brisbane | Adelaide | Perth | Hobart | Darwin

Other Formats:

Comma delimited format used in spreadsheet applications
http://www.bom.gov.au/fwo/IDN60903/IDN60903.95916.axf

JavaScript Object Notation format (JSON) in row-major order
http://www.bom.gov.au/fwo/IDN60903/IDN60903.95916.json